This is the latest recevied weather packets stored in our database for station/object N5LOC. If no packets are shown the sender has not sent any weather packets the latest 10 day(s).
| Time | Temp. | Humidity | Pressure | Rain* | Wind** | Luminosity | Snow |
|---|---|---|---|---|---|---|---|
| 1777771834 | 21.67° C | 48% | 1020.2 hPa | 0 mm | - | - | - |
| 1777770033 | 23.33° C | 43% | 1019.9 hPa | 0 mm | - | - | - |
| 1777752028 | 25° C | 39% | 1021.3 hPa | 0 mm | - | - | - |
| 1777750224 | 24.44° C | 38% | 1021.6 hPa | 0 mm | - | - | - |
| 1777748426 | 23.89° C | 40% | 1022.2 hPa | 0 mm | - | - | - |
| 1777746627 | 23.33° C | 40% | 1022.5 hPa | 0 mm | - | - | - |
| 1777744826 | 23.89° C | 37% | 1023 hPa | 0 mm | - | - | - |
| 1777743028 | 22.78° C | 36% | 1023.1 hPa | 0 mm | - | - | - |
| 1777741226 | 22.22° C | 41% | 1023.4 hPa | 0 mm | - | - | - |
| 1777739425 | 22.22° C | 40% | 1023.3 hPa | 0 mm | - | - | - |
| 1777737625 | 21.11° C | 43% | 1023.3 hPa | 0 mm | - | - | - |
| 1777735828 | 20° C | 47% | 1023.1 hPa | 0 mm | - | - | - |
| 1777734022 | 19.44° C | 52% | 1022.9 hPa | 0 mm | - | - | - |
| 1777732229 | 17.78° C | 60% | 1022.9 hPa | 0 mm | - | - | - |
| 1777730423 | 16.67° C | 65% | 1022.7 hPa | 0 mm | - | - | - |
| 1777728627 | 15° C | 72% | 1022.5 hPa | 0 mm | - | - | - |
| 1777726827 | 13.33° C | 81% | 1022.1 hPa | 0 mm | - | - | - |
| 1777725022 | 11.67° C | 88% | 1021.7 hPa | 0 mm | - | - | - |
| 1777723227 | 10.56° C | 91% | 1021.2 hPa | 0 mm | - | - | - |
| 1777721428 | 10.56° C | 91% | 1020.7 hPa | 0 mm | - | - | - |
| 1777719626 | 11.11° C | 90% | 1020.5 hPa | 0 mm | - | - | - |
| 1777717827 | 10.56° C | 90% | 1020 hPa | 0 mm | - | - | - |
| 1777716026 | 11.11° C | 88% | 1020.1 hPa | 0 mm | - | - | - |
| 1777714221 | 11.67° C | 87% | 1020.2 hPa | 0 mm | - | - | - |
| 1777712425 | 11.11° C | 88% | 1020.1 hPa | 0 mm | - | - | - |
* Rain latest hour (hover to see other rain measurements)
** Current wind speed in m/s (hover to see current wind gust speed)